Time;durP1;ratioP1;P1;durP2;ratioP2;P2;SDS_P1;SDS_P2;PMS_P1;PMS_P2;Temp;Humidity;BMP_temperature;BMP_pressure;BME280_temperature;BME280_humidity;BME280_pressure;Samples;Min_cycle;Max_cycle;Signal;HPM_P1;HPM_P2
2021/06/27 00:00:43;;;;;;;21.40;19.60;;;19.60;99.90;;;;;;5055437;28;20659;-68
2021/06/27 00:03:09;;;;;;;21.10;19.40;;;19.50;99.90;;;;;;5059823;28;20636;-67
2021/06/27 00:05:37;;;;;;;21.27;19.60;;;19.50;99.90;;;;;;5048299;28;21015;-66
2021/06/27 00:08:06;;;;;;;19.63;18.03;;;19.50;99.90;;;;;;5062418;28;20669;-68
2021/06/27 00:10:39;;;;;;;19.70;18.00;;;19.40;99.90;;;;;;5077434;28;20650;-66
2021/06/27 00:13:06;;;;;;;19.60;18.03;;;19.40;99.90;;;;;;5053404;28;20618;-68
2021/06/27 00:15:39;;;;;;;18.97;17.43;;;19.30;99.90;;;;;;5058639;28;20638;-67
2021/06/27 00:18:07;;;;;;;18.80;17.30;;;19.20;99.90;;;;;;5059911;28;20649;-66
2021/06/27 00:20:34;;;;;;;18.57;16.97;;;19.20;99.90;;;;;;5065810;28;20642;-67
2021/06/27 00:23:00;;;;;;;19.53;17.93;;;19.10;99.90;;;;;;5056952;28;20774;-67
2021/06/27 00:25:29;;;;;;;18.63;17.13;;;19.10;99.90;;;;;;5059254;28;20832;-67
2021/06/27 00:27:55;;;;;;;18.07;16.53;;;19.00;99.90;;;;;;5062462;28;20257;-67
2021/06/27 00:30:22;;;;;;;17.53;16.13;;;19.00;99.90;;;;;;5062218;28;20645;-67
2021/06/27 00:32:48;;;;;;;18.30;16.77;;;19.00;99.90;;;;;;5059304;28;20699;-67
2021/06/27 00:35:16;;;;;;;16.93;15.43;;;18.90;99.90;;;;;;5058876;28;20629;-67
2021/06/27 00:37:42;;;;;;;17.40;16.00;;;18.80;99.90;;;;;;5061003;28;21168;-67
2021/06/27 00:40:12;;;;;;;17.63;16.13;;;18.80;99.90;;;;;;5059738;28;20637;-67
2021/06/27 00:42:38;;;;;;;17.23;15.83;;;18.80;99.90;;;;;;5064191;28;20706;-66
2021/06/27 00:45:07;;;;;;;17.47;15.97;;;18.70;99.90;;;;;;5065668;28;20609;-66
2021/06/27 00:47:36;;;;;;;18.30;16.80;;;18.70;99.90;;;;;;5059574;28;20614;-66
2021/06/27 00:50:07;;;;;;;17.70;16.20;;;18.70;99.90;;;;;;5076031;28;20704;-67
2021/06/27 00:52:33;;;;;;;17.07;15.67;;;18.60;99.90;;;;;;5060822;28;20970;-66
2021/06/27 00:54:58;;;;;;;18.10;16.50;;;18.70;99.90;;;;;;5061337;28;20597;-66
2021/06/27 00:57:28;;;;;;;18.33;16.73;;;18.70;99.90;;;;;;5057006;28;20220;-69
2021/06/27 00:59:54;;;;;;;17.80;16.30;;;18.60;99.90;;;;;;5061972;28;20196;-67
2021/06/27 01:02:19;;;;;;;18.27;16.67;;;18.50;99.90;;;;;;5058718;28;20617;-67
2021/06/27 01:04:45;;;;;;;18.90;17.30;;;18.50;99.90;;;;;;5057090;28;20741;-66
2021/06/27 01:07:10;;;;;;;19.40;17.77;;;18.40;99.90;;;;;;5060455;28;20667;-67
2021/06/27 01:09:38;;;;;;;20.43;18.63;;;18.40;99.90;;;;;;5059816;28;20254;-68
2021/06/27 01:12:05;;;;;;;19.93;18.17;;;18.40;99.90;;;;;;5063491;28;20180;-67
2021/06/27 01:14:30;;;;;;;19.00;17.50;;;18.40;99.90;;;;;;5062911;28;20617;-69
2021/06/27 01:16:58;;;;;;;21.47;19.57;;;18.40;99.90;;;;;;5057136;28;21022;-67
2021/06/27 01:19:33;;;;;;;20.20;18.50;;;18.30;99.90;;;;;;5054868;28;20640;-67
2021/06/27 01:21:59;;;;;;;20.37;18.67;;;18.30;99.90;;;;;;5060267;28;20690;-69
2021/06/27 01:24:25;;;;;;;21.30;19.50;;;18.30;99.90;;;;;;5057908;28;20770;-67
2021/06/27 01:26:51;;;;;;;20.30;18.37;;;18.30;99.90;;;;;;5055866;28;20673;-69
2021/06/27 01:29:16;;;;;;;20.20;18.50;;;18.20;99.90;;;;;;5062331;28;21256;-67
2021/06/27 01:31:46;;;;;;;20.87;18.97;;;18.20;99.90;;;;;;5065586;28;20232;-68
2021/06/27 01:34:13;;;;;;;21.57;19.77;;;18.20;99.90;;;;;;5065949;28;20202;-67
2021/06/27 01:36:39;;;;;;;19.67;17.97;;;18.10;99.90;;;;;;5076762;28;20644;-67
2021/06/27 01:39:04;;;;;;;20.77;18.93;;;18.10;99.90;;;;;;5062909;28;20661;-67
2021/06/27 01:41:35;;;;;;;18.77;17.07;;;18.10;99.90;;;;;;5066443;28;20662;-69
2021/06/27 01:44:02;;;;;;;19.70;18.00;;;18.10;99.90;;;;;;5062789;28;20559;-69
2021/06/27 01:46:28;;;;;;;20.37;18.57;;;18.10;99.90;;;;;;5064802;28;20646;-69
2021/06/27 01:48:54;;;;;;;19.57;17.87;;;18.00;99.90;;;;;;5062191;28;20673;-69
2021/06/27 01:51:19;;;;;;;18.23;16.73;;;18.00;99.90;;;;;;5064718;28;20273;-67
2021/06/27 01:53:45;;;;;;;19.17;17.30;;;18.00;99.90;;;;;;5064793;28;20638;-67
2021/06/27 01:56:11;;;;;;;18.73;17.10;;;17.90;99.90;;;;;;5064013;28;20250;-69
2021/06/27 01:58:42;;;;;;;18.70;17.10;;;17.90;99.90;;;;;;5063513;28;20298;-67
2021/06/27 02:01:29;;;;;;;18.40;16.73;;;18.00;99.90;;;;;;5074657;28;20183;-69
2021/06/27 02:03:55;;;;;;;19.10;17.40;;;17.90;99.90;;;;;;5074529;28;21183;-69
2021/06/27 02:06:23;;;;;;;18.80;17.20;;;17.90;99.90;;;;;;5064199;28;20969;-67
2021/06/27 02:08:49;;;;;;;18.13;16.60;;;17.80;99.90;;;;;;5062563;28;20637;-67
2021/06/27 02:11:18;;;;;;;18.43;16.83;;;17.80;99.90;;;;;;5063221;28;20610;-67
2021/06/27 02:13:44;;;;;;;19.10;17.50;;;17.80;99.90;;;;;;5064840;28;20704;-67
2021/06/27 02:16:10;;;;;;;19.23;17.60;;;17.80;99.90;;;;;;5065079;28;20637;-69
2021/06/27 02:18:44;;;;;;;18.70;17.00;;;17.80;99.90;;;;;;5061202;28;20668;-67
2021/06/27 02:21:19;;;;;;;18.40;16.80;;;17.80;99.90;;;;;;5061344;28;20183;-67
2021/06/27 02:23:45;;;;;;;17.70;16.10;;;17.80;99.90;;;;;;5061028;28;21784;-67
2021/06/27 02:26:11;;;;;;;18.60;17.03;;;17.70;99.90;;;;;;5060048;28;21317;-69
2021/06/27 02:28:37;;;;;;;19.53;17.77;;;17.70;99.90;;;;;;5054793;28;21184;-67
2021/06/27 02:31:04;;;;;;;18.33;16.83;;;17.70;99.90;;;;;;5065759;28;20704;-67
2021/06/27 02:33:30;;;;;;;19.07;17.23;;;17.70;99.90;;;;;;5063997;28;20708;-67
2021/06/27 02:35:56;;;;;;;18.70;17.17;;;17.80;99.90;;;;;;5063662;28;20649;-67
2021/06/27 02:38:22;;;;;;;18.50;17.00;;;17.80;99.90;;;;;;5065194;28;20649;-67
2021/06/27 02:40:49;;;;;;;17.80;16.23;;;17.70;99.90;;;;;;5064437;28;20621;-67
2021/06/27 02:43:17;;;;;;;19.33;17.63;;;17.70;99.90;;;;;;5068566;28;20686;-67
2021/06/27 02:45:44;;;;;;;18.73;17.10;;;17.70;99.90;;;;;;5070362;28;20714;-67
2021/06/27 02:48:10;;;;;;;18.77;17.17;;;17.70;99.90;;;;;;5072548;28;20666;-67
2021/06/27 02:50:36;;;;;;;17.77;16.27;;;17.70;99.90;;;;;;5066824;28;21145;-67
2021/06/27 02:53:03;;;;;;;18.37;16.77;;;17.70;99.90;;;;;;5065854;28;20406;-67
2021/06/27 02:55:29;;;;;;;18.70;17.20;;;17.70;99.90;;;;;;5063896;28;20736;-67
2021/06/27 02:57:54;;;;;;;18.73;17.13;;;17.70;99.90;;;;;;5067836;28;20713;-67
2021/06/27 03:00:21;;;;;;;18.03;16.63;;;17.70;99.90;;;;;;5066314;28;20195;-66
2021/06/27 03:02:47;;;;;;;18.47;16.87;;;17.70;99.90;;;;;;5063508;28;20179;-67
2021/06/27 03:05:16;;;;;;;18.13;16.53;;;17.70;99.90;;;;;;5062835;28;20621;-66
2021/06/27 03:07:43;;;;;;;18.27;16.67;;;17.70;99.90;;;;;;5066532;28;20627;-66
2021/06/27 03:10:11;;;;;;;18.27;16.77;;;17.70;99.90;;;;;;5055683;28;20821;-67
2021/06/27 03:12:41;;;;;;;18.37;16.70;;;17.70;99.90;;;;;;5065081;28;20658;-67
2021/06/27 03:15:10;;;;;;;18.73;17.13;;;17.70;99.90;;;;;;5065250;28;20606;-67
2021/06/27 03:17:35;;;;;;;17.93;16.43;;;17.70;99.90;;;;;;5067750;28;20690;-67
2021/06/27 03:20:01;;;;;;;18.53;17.03;;;17.70;99.90;;;;;;5066999;28;20653;-67
2021/06/27 03:22:27;;;;;;;18.60;16.90;;;17.70;99.90;;;;;;5067416;28;20524;-66
2021/06/27 03:24:53;;;;;;;18.43;16.83;;;17.70;99.90;;;;;;5057532;28;20620;-66
2021/06/27 03:27:20;;;;;;;17.97;16.47;;;17.70;99.90;;;;;;5066532;28;20557;-67
2021/06/27 03:29:46;;;;;;;18.60;17.00;;;17.70;99.90;;;;;;5064398;28;20418;-67
2021/06/27 03:32:12;;;;;;;17.17;15.77;;;17.80;99.90;;;;;;5062383;28;20768;-67
2021/06/27 03:34:37;;;;;;;18.00;16.50;;;17.80;99.90;;;;;;5062173;28;21252;-67
2021/06/27 03:37:03;;;;;;;18.43;16.70;;;17.80;99.90;;;;;;5058354;28;20215;-67
2021/06/27 03:39:29;;;;;;;18.67;17.07;;;17.80;99.90;;;;;;5062333;28;20309;-67
2021/06/27 03:41:55;;;;;;;17.60;16.00;;;17.80;99.90;;;;;;5061189;28;21247;-67
2021/06/27 03:44:25;;;;;;;17.03;15.53;;;17.90;99.90;;;;;;5066252;28;20199;-67
2021/06/27 03:46:51;;;;;;;16.77;15.27;;;17.90;99.90;;;;;;5061480;28;20294;-67
2021/06/27 03:49:18;;;;;;;16.40;15.00;;;17.90;99.90;;;;;;5061235;28;21177;-67
2021/06/27 03:51:44;;;;;;;17.33;15.73;;;17.90;99.90;;;;;;5063905;28;20651;-67
2021/06/27 03:54:10;;;;;;;17.57;16.00;;;17.90;99.90;;;;;;5063240;28;20693;-67
2021/06/27 03:56:36;;;;;;;17.23;15.73;;;17.90;99.90;;;;;;5058900;28;20711;-67
2021/06/27 03:59:01;;;;;;;17.50;16.00;;;17.90;99.90;;;;;;5061995;28;21025;-67
2021/06/27 04:01:27;;;;;;;17.77;16.17;;;17.90;99.90;;;;;;5059822;28;20183;-66
2021/06/27 04:03:53;;;;;;;17.20;15.80;;;18.00;99.90;;;;;;5059555;28;20278;-66
2021/06/27 04:06:18;;;;;;;18.07;16.57;;;18.00;99.90;;;;;;5056169;28;20227;-67
2021/06/27 04:08:44;;;;;;;18.50;16.80;;;18.00;99.90;;;;;;5059901;28;20219;-67
2021/06/27 04:11:09;;;;;;;18.70;17.00;;;18.00;99.90;;;;;;5052770;28;20179;-67
2021/06/27 04:13:36;;;;;;;17.90;16.40;;;18.00;99.90;;;;;;5064352;28;20196;-67
2021/06/27 04:16:03;;;;;;;17.60;16.10;;;18.00;99.90;;;;;;5064631;28;20212;-67
2021/06/27 04:18:31;;;;;;;17.60;16.10;;;18.10;99.90;;;;;;5063239;28;23425;-67
2021/06/27 04:20:57;;;;;;;18.20;16.60;;;18.00;99.90;;;;;;5063556;28;20641;-67
2021/06/27 04:23:25;;;;;;;19.40;17.70;;;18.00;99.90;;;;;;5054466;28;20616;-67
2021/06/27 04:25:50;;;;;;;18.13;16.63;;;18.10;99.90;;;;;;5060332;28;20621;-67
2021/06/27 04:28:16;;;;;;;19.13;17.40;;;18.20;99.90;;;;;;5062690;28;20987;-67
2021/06/27 04:30:42;;;;;;;18.10;16.60;;;18.20;99.90;;;;;;5064671;28;20184;-67
2021/06/27 04:33:10;;;;;;;18.90;17.10;;;18.20;99.90;;;;;;5060900;28;20188;-67
2021/06/27 04:35:37;;;;;;;20.53;18.73;;;18.30;99.90;;;;;;5066603;28;20873;-67
2021/06/27 04:38:04;;;;;;;20.07;18.17;;;18.30;99.90;;;;;;5062012;28;20817;-67
2021/06/27 04:40:29;;;;;;;20.43;18.53;;;18.30;99.90;;;;;;5064235;28;20736;-67
2021/06/27 04:42:55;;;;;;;20.53;18.83;;;18.20;99.90;;;;;;5062241;28;20743;-67
2021/06/27 04:45:23;;;;;;;21.13;19.27;;;18.20;99.90;;;;;;5060775;28;20307;-67
2021/06/27 04:47:49;;;;;;;19.93;18.10;;;18.20;99.90;;;;;;5066049;28;20191;-67
2021/06/27 04:50:17;;;;;;;19.13;17.43;;;18.30;99.90;;;;;;5066463;28;20652;-67
2021/06/27 04:52:42;;;;;;;20.47;18.57;;;18.30;99.90;;;;;;5066251;28;20621;-67
2021/06/27 04:55:09;;;;;;;21.47;19.60;;;18.30;99.90;;;;;;5062317;28;20629;-67
2021/06/27 04:57:35;;;;;;;19.80;18.10;;;18.30;99.90;;;;;;5061805;28;20655;-67
2021/06/27 05:00:03;;;;;;;19.90;18.20;;;18.40;99.90;;;;;;5064109;28;20637;-67
2021/06/27 05:02:31;;;;;;;18.83;17.10;;;18.40;99.90;;;;;;5062122;28;20992;-67
2021/06/27 05:04:56;;;;;;;21.60;19.70;;;18.40;99.90;;;;;;5062663;28;20674;-67
2021/06/27 05:07:22;;;;;;;20.03;18.23;;;18.50;99.90;;;;;;5065070;28;21180;-67
2021/06/27 05:09:49;;;;;;;20.37;18.53;;;18.50;99.90;;;;;;5062815;28;20260;-67
2021/06/27 05:12:15;;;;;;;18.93;17.30;;;18.50;99.90;;;;;;5060813;28;20237;-67
2021/06/27 05:14:41;;;;;;;20.90;19.00;;;18.60;99.90;;;;;;5061375;28;20690;-67
2021/06/27 05:17:06;;;;;;;20.97;19.13;;;18.60;99.90;;;;;;5061323;28;20667;-67
2021/06/27 05:19:32;;;;;;;20.73;18.63;;;18.60;99.90;;;;;;5065754;28;20204;-67
2021/06/27 05:21:58;;;;;;;20.13;18.33;;;18.70;99.90;;;;;;5058856;28;20220;-67
2021/06/27 05:24:24;;;;;;;20.43;18.63;;;18.80;99.90;;;;;;5060432;28;20643;-67
2021/06/27 05:26:49;;;;;;;18.20;16.60;;;18.80;99.90;;;;;;5060152;28;20288;-67
2021/06/27 05:29:15;;;;;;;20.07;18.23;;;18.80;99.90;;;;;;5078083;28;20734;-67
2021/06/27 05:31:41;;;;;;;19.50;17.77;;;18.80;99.90;;;;;;5063393;28;20195;-67
2021/06/27 05:34:08;;;;;;;20.27;18.43;;;18.90;99.90;;;;;;5062730;28;20230;-67
2021/06/27 05:36:37;;;;;;;20.73;18.83;;;18.80;99.90;;;;;;5060766;28;20369;-67
2021/06/27 05:39:11;;;;;;;19.57;17.77;;;18.90;99.90;;;;;;5070534;28;20791;-67
2021/06/27 05:41:37;;;;;;;20.37;18.47;;;18.90;99.90;;;;;;5078831;28;20689;-67
2021/06/27 05:44:04;;;;;;;20.37;18.67;;;19.00;99.90;;;;;;5067631;28;20609;-67
2021/06/27 05:46:30;;;;;;;21.27;19.40;;;19.00;99.90;;;;;;5062176;28;20725;-67
2021/06/27 05:48:56;;;;;;;21.20;19.30;;;19.10;99.90;;;;;;5060127;28;20717;-67
2021/06/27 05:51:21;;;;;;;21.10;19.30;;;19.10;99.90;;;;;;5062819;28;20512;-67
2021/06/27 05:53:47;;;;;;;19.00;17.30;;;19.10;99.90;;;;;;5060422;28;20275;-67
2021/06/27 05:56:16;;;;;;;22.17;20.07;;;19.20;99.90;;;;;;5055632;28;20219;-66
2021/06/27 05:58:43;;;;;;;19.47;17.67;;;19.20;99.90;;;;;;5062797;28;20247;-67
2021/06/27 06:01:11;;;;;;;21.10;19.10;;;19.30;99.90;;;;;;5059095;28;20686;-67
2021/06/27 06:03:38;;;;;;;20.97;19.13;;;19.30;99.90;;;;;;5070838;28;21184;-67
2021/06/27 06:06:05;;;;;;;22.13;20.03;;;19.40;99.90;;;;;;5041191;28;20637;-69
2021/06/27 06:08:30;;;;;;;24.03;21.73;;;19.60;99.90;;;;;;5044375;28;20690;-67
2021/06/27 06:10:56;;;;;;;22.30;20.20;;;19.60;99.90;;;;;;5058259;28;20625;-68
2021/06/27 06:13:21;;;;;;;21.43;19.53;;;19.60;99.90;;;;;;5062097;28;20264;-67
2021/06/27 06:15:47;;;;;;;20.97;19.10;;;19.70;99.90;;;;;;5060035;28;20215;-68
2021/06/27 06:18:16;;;;;;;21.30;19.40;;;19.80;99.90;;;;;;5065553;28;20624;-67
2021/06/27 06:20:41;;;;;;;20.13;18.33;;;19.80;99.90;;;;;;5078292;28;20629;-67
2021/06/27 06:23:07;;;;;;;20.37;18.53;;;19.90;99.90;;;;;;5062834;28;20706;-67
2021/06/27 06:25:33;;;;;;;20.37;18.47;;;20.00;99.90;;;;;;5059838;28;20678;-67
2021/06/27 06:27:59;;;;;;;19.27;17.30;;;20.10;99.90;;;;;;5062929;28;20196;-67
2021/06/27 06:30:24;;;;;;;18.73;17.07;;;20.10;99.90;;;;;;5064525;28;20212;-67
2021/06/27 06:32:50;;;;;;;19.03;17.30;;;20.10;99.90;;;;;;5063480;28;20198;-67
2021/06/27 06:35:15;;;;;;;19.20;17.33;;;20.20;99.90;;;;;;5060520;28;20292;-67
2021/06/27 06:37:41;;;;;;;20.57;18.60;;;20.30;99.90;;;;;;5064966;28;20203;-67
2021/06/27 06:40:07;;;;;;;16.90;15.33;;;20.30;99.90;;;;;;5063817;28;20224;-67
2021/06/27 06:42:33;;;;;;;17.43;15.90;;;20.40;99.90;;;;;;5058423;28;20535;-67
2021/06/27 06:44:59;;;;;;;17.67;16.07;;;20.40;99.90;;;;;;5064732;28;20701;-67
2021/06/27 06:47:29;;;;;;;17.93;16.23;;;20.40;99.90;;;;;;5064541;28;20256;-67
2021/06/27 06:49:55;;;;;;;17.07;15.40;;;20.50;99.90;;;;;;5058672;28;20329;-67
2021/06/27 06:52:22;;;;;;;15.77;14.40;;;20.60;99.90;;;;;;5056245;28;21211;-67
2021/06/27 06:54:48;;;;;;;15.97;14.57;;;20.60;99.90;;;;;;5056163;28;20290;-67
2021/06/27 06:57:13;;;;;;;15.80;14.50;;;20.60;99.90;;;;;;5057551;28;20649;-66
2021/06/27 06:59:39;;;;;;;16.53;14.97;;;20.60;99.90;;;;;;5052740;28;20863;-67
2021/06/27 07:02:04;;;;;;;16.13;14.73;;;20.80;99.90;;;;;;5060306;28;20187;-68
2021/06/27 07:04:30;;;;;;;16.20;14.70;;;20.80;99.90;;;;;;5057465;28;20515;-68
2021/06/27 07:06:56;;;;;;;14.80;13.60;;;20.80;99.90;;;;;;5059695;28;20230;-67
2021/06/27 07:09:21;;;;;;;16.13;14.63;;;20.80;99.90;;;;;;5054228;28;20278;-67
2021/06/27 07:11:49;;;;;;;16.83;15.10;;;20.90;99.90;;;;;;5062586;28;20252;-67
2021/06/27 07:14:15;;;;;;;17.67;15.97;;;21.00;99.90;;;;;;5049415;28;20187;-67
2021/06/27 07:16:40;;;;;;;17.13;15.63;;;21.00;99.90;;;;;;5059707;28;20652;-67
2021/06/27 07:19:08;;;;;;;16.90;15.30;;;21.00;99.90;;;;;;5059438;28;20226;-67
2021/06/27 07:21:34;;;;;;;17.83;16.23;;;21.10;99.90;;;;;;5060270;28;20219;-68
2021/06/27 07:24:00;;;;;;;16.50;15.00;;;21.10;99.90;;;;;;5056938;28;21031;-67
2021/06/27 07:26:25;;;;;;;15.00;13.70;;;21.20;99.90;;;;;;5053962;28;20260;-67
2021/06/27 07:28:53;;;;;;;17.70;16.10;;;21.30;99.90;;;;;;5057527;28;20195;-69
2021/06/27 07:31:19;;;;;;;17.07;15.47;;;21.30;99.90;;;;;;5049257;28;20278;-67
2021/06/27 07:33:44;;;;;;;16.43;14.93;;;21.40;99.90;;;;;;5053928;28;21142;-67
2021/06/27 07:36:10;;;;;;;17.93;16.37;;;21.40;99.90;;;;;;5059753;28;20234;-68
2021/06/27 07:38:36;;;;;;;17.27;15.67;;;21.40;99.90;;;;;;5058410;28;20312;-67
2021/06/27 07:41:02;;;;;;;17.60;15.90;;;21.40;99.90;;;;;;5061203;28;20192;-67
2021/06/27 07:43:31;;;;;;;16.77;15.20;;;21.50;99.90;;;;;;5054401;28;20609;-68
2021/06/27 07:46:00;;;;;;;16.57;15.13;;;21.50;99.90;;;;;;5052641;28;20263;-65
2021/06/27 07:48:25;;;;;;;15.47;13.97;;;21.60;99.90;;;;;;5053696;28;20626;-66
2021/06/27 07:50:51;;;;;;;16.43;14.90;;;21.60;99.90;;;;;;5056765;28;20629;-68
2021/06/27 07:53:16;;;;;;;16.80;15.20;;;21.70;99.90;;;;;;5046792;28;22965;-68
2021/06/27 07:55:42;;;;;;;16.00;14.63;;;21.80;99.90;;;;;;5054250;28;20258;-68
2021/06/27 07:58:08;;;;;;;15.90;14.50;;;21.80;99.90;;;;;;5052426;28;20215;-68
2021/06/27 08:00:33;;;;;;;16.57;15.07;;;21.90;99.90;;;;;;5054882;28;20448;-68
2021/06/27 08:03:00;;;;;;;15.30;14.00;;;21.90;99.90;;;;;;5059735;28;20384;-68
2021/06/27 08:05:26;;;;;;;15.93;14.53;;;22.00;99.90;;;;;;5052509;28;20239;-67
2021/06/27 08:07:51;;;;;;;15.30;13.90;;;22.20;99.90;;;;;;5056490;28;20686;-68
2021/06/27 08:10:20;;;;;;;14.47;13.17;;;22.10;99.90;;;;;;5056496;28;20241;-68
2021/06/27 08:12:45;;;;;;;15.20;13.90;;;22.20;99.90;;;;;;5057084;28;20195;-68
2021/06/27 08:15:18;;;;;;;13.87;12.77;;;22.30;99.90;;;;;;5053652;28;21067;-68
2021/06/27 08:17:45;;;;;;;13.87;12.73;;;22.30;99.90;;;;;;5056578;28;20211;-67
2021/06/27 08:20:11;;;;;;;12.77;11.70;;;22.30;99.90;;;;;;5054937;28;21187;-68
2021/06/27 08:22:37;;;;;;;12.30;11.17;;;22.30;99.90;;;;;;5060141;28;20613;-66
2021/06/27 08:25:03;;;;;;;13.10;12.00;;;22.40;99.90;;;;;;5054733;28;20616;-66
2021/06/27 08:27:29;;;;;;;14.27;13.00;;;22.50;99.90;;;;;;5070024;28;20677;-66
2021/06/27 08:29:55;;;;;;;14.97;13.77;;;22.60;99.90;;;;;;5058846;28;20660;-66
2021/06/27 08:32:20;;;;;;;13.23;12.13;;;22.70;99.90;;;;;;5056822;28;20270;-66
2021/06/27 08:34:46;;;;;;;13.40;12.10;;;22.60;99.90;;;;;;5060958;28;20596;-66
2021/06/27 08:37:11;;;;;;;14.50;13.20;;;22.70;99.90;;;;;;5067606;28;20279;-66
2021/06/27 08:39:37;;;;;;;13.43;12.20;;;22.80;99.90;;;;;;5071364;28;20211;-66
2021/06/27 08:42:03;;;;;;;13.10;12.00;;;22.80;99.90;;;;;;5064681;28;20278;-65
2021/06/27 08:44:29;;;;;;;12.40;11.40;;;22.90;99.90;;;;;;5063565;28;20243;-66
2021/06/27 08:46:55;;;;;;;13.87;12.60;;;22.90;99.90;;;;;;5056570;28;20217;-66
2021/06/27 08:49:21;;;;;;;14.77;13.40;;;22.90;99.90;;;;;;5056025;28;20730;-65
2021/06/27 08:51:50;;;;;;;13.80;12.47;;;23.00;99.90;;;;;;5060547;28;21129;-67
2021/06/27 08:54:16;;;;;;;14.87;13.57;;;23.00;99.90;;;;;;5063567;28;20331;-67
2021/06/27 08:56:45;;;;;;;14.30;12.90;;;23.00;99.90;;;;;;5059132;28;20712;-67
2021/06/27 08:59:10;;;;;;;14.00;12.57;;;23.10;99.90;;;;;;5064849;28;20242;-67
2021/06/27 09:01:36;;;;;;;12.17;11.17;;;23.10;99.90;;;;;;5049953;28;20649;-67
2021/06/27 09:04:02;;;;;;;14.90;13.40;;;23.10;99.90;;;;;;5059824;28;20187;-68
2021/06/27 09:06:29;;;;;;;13.83;12.57;;;23.30;99.90;;;;;;5062954;28;20770;-70
2021/06/27 09:09:18;;;;;;;12.40;11.33;;;23.30;99.90;;;;;;5059741;28;20924;-68
2021/06/27 09:12:04;;;;;;;15.60;14.20;;;23.40;99.90;;;;;;5049015;28;20622;-67
2021/06/27 09:14:35;;;;;;;14.37;13.17;;;23.50;99.90;;;;;;5057447;28;23242;-66
2021/06/27 09:17:08;;;;;;;14.47;13.13;;;23.50;99.90;;;;;;5054321;28;21185;-67
2021/06/27 09:19:52;;;;;;;13.60;12.40;;;23.60;99.90;;;;;;5051914;28;20648;-65
2021/06/27 09:22:26;;;;;;;12.40;11.27;;;23.60;99.90;;;;;;5057787;28;20618;-66
2021/06/27 09:24:53;;;;;;;12.60;11.50;;;23.60;99.90;;;;;;5039750;27;20628;-67
2021/06/27 09:27:20;;;;;;;12.13;11.07;;;23.70;99.90;;;;;;5054817;28;20703;-68
2021/06/27 09:29:46;;;;;;;12.53;11.37;;;23.90;99.90;;;;;;5060682;28;20705;-69
2021/06/27 09:32:34;;;;;;;12.43;11.33;;;23.90;99.90;;;;;;5062103;28;20629;-67
2021/06/27 09:34:59;;;;;;;13.17;12.00;;;24.00;99.90;;;;;;5059431;28;20616;-66
2021/06/27 09:37:29;;;;;;;13.73;12.50;;;23.90;99.90;;;;;;5063083;28;20644;-66
2021/06/27 09:40:01;;;;;;;12.60;11.50;;;24.00;99.90;;;;;;5060838;28;20222;-68
2021/06/27 09:42:28;;;;;;;12.13;11.10;;;24.10;99.90;;;;;;5061371;28;20610;-66
2021/06/27 09:45:08;;;;;;;10.77;9.80;;;24.20;99.90;;;;;;5055032;28;20690;-67
2021/06/27 09:47:34;;;;;;;11.20;10.20;;;24.20;99.90;;;;;;5054444;28;20617;-67
2021/06/27 09:50:20;;;;;;;11.57;10.57;;;24.20;99.90;;;;;;5058364;28;20680;-65
2021/06/27 09:52:45;;;;;;;11.10;10.20;;;24.20;99.90;;;;;;5058198;28;20621;-65
2021/06/27 09:55:15;;;;;;;12.20;11.10;;;24.30;99.90;;;;;;5077681;28;20731;-66
2021/06/27 09:57:42;;;;;;;11.27;10.37;;;24.30;99.90;;;;;;5063445;28;20257;-66
2021/06/27 10:00:32;;;;;;;12.67;11.67;;;24.40;99.90;;;;;;5051386;28;21276;-67
2021/06/27 10:03:05;;;;;;;11.53;10.43;;;24.60;99.90;;;;;;5055365;28;21621;-66
2021/06/27 10:05:33;;;;;;;11.90;10.90;;;24.60;99.90;;;;;;5057584;28;20628;-67
2021/06/27 10:07:59;;;;;;;11.40;10.47;;;24.70;99.90;;;;;;5061170;28;20962;-65
2021/06/27 10:10:25;;;;;;;11.57;10.47;;;24.80;99.90;;;;;;5062334;28;21175;-64
2021/06/27 10:12:50;;;;;;;11.37;10.30;;;24.80;99.90;;;;;;5060902;28;20653;-66
2021/06/27 10:15:50;;;;;;;11.33;10.30;;;24.80;99.90;;;;;;4898056;28;20195;-68
2021/06/27 11:01:08;;;;;;;8.03;7.43;;;25.70;99.90;;;;;;3251964;22;20712;-83
2021/06/27 15:03:57;;;;;;;3.50;3.30;;;30.80;99.90;;;;;;5720888;23;20643;-87
2021/06/27 15:06:23;;;;;;;3.63;3.43;;;30.90;99.90;;;;;;4961090;28;20638;-88
2021/06/27 15:11:29;;;;;;;3.40;3.20;;;31.10;99.90;;;;;;5443366;23;20241;-89
2021/06/27 15:13:55;;;;;;;4.00;3.70;;;31.20;99.90;;;;;;5039535;23;20705;-89
2021/06/27 15:16:22;;;;;;;3.47;3.27;;;31.30;99.90;;;;;;4920173;29;20212;-91
2021/06/27 15:18:48;;;;;;;3.30;3.20;;;31.40;99.90;;;;;;4904977;29;20224;-92
2021/06/27 15:21:15;;;;;;;3.67;3.30;;;31.50;99.90;;;;;;4903553;29;20614;-91
2021/06/27 15:23:41;;;;;;;3.87;2.93;;;31.50;99.90;;;;;;4903714;29;20618;-92
2021/06/27 15:26:07;;;;;;;3.93;3.27;;;31.60;99.90;;;;;;4902357;29;20650;-92
2021/06/27 15:28:33;;;;;;;3.40;3.10;;;31.60;99.90;;;;;;4900390;29;20658;-92
2021/06/27 15:31:01;;;;;;;3.30;3.10;;;31.70;99.90;;;;;;4913478;29;20638;-92
2021/06/27 15:33:28;;;;;;;3.50;3.20;;;31.70;99.90;;;;;;4917094;29;20626;-91
2021/06/27 15:35:54;;;;;;;3.27;3.07;;;31.70;99.90;;;;;;4899408;29;20613;-90
2021/06/27 15:38:20;;;;;;;2.90;2.70;;;31.70;99.90;;;;;;4917625;29;20685;-90
2021/06/27 15:40:47;;;;;;;3.00;2.80;;;31.70;99.90;;;;;;4903963;29;20641;-91
2021/06/27 15:43:12;;;;;;;3.10;2.90;;;31.70;99.90;;;;;;4900053;29;20214;-90
2021/06/27 15:45:43;;;;;;;3.20;3.00;;;31.70;99.90;;;;;;4892229;29;20622;-89
2021/06/27 15:48:08;;;;;;;3.60;2.63;;;31.80;99.90;;;;;;4894815;29;20206;-91
2021/06/27 15:50:34;;;;;;;3.10;2.90;;;31.80;99.90;;;;;;4896272;29;20632;-90
2021/06/27 15:53:05;;;;;;;2.90;2.70;;;31.80;99.90;;;;;;4916414;29;20193;-90
2021/06/27 15:55:30;;;;;;;3.10;2.90;;;31.80;99.90;;;;;;4904074;29;20681;-91
2021/06/27 15:57:56;;;;;;;3.10;2.97;;;31.80;99.90;;;;;;4899697;29;20221;-93
2021/06/27 16:00:22;;;;;;;2.90;2.73;;;31.70;99.90;;;;;;4898353;29;20184;-91
2021/06/27 16:02:49;;;;;;;3.60;3.40;;;31.80;99.90;;;;;;4904667;29;20205;-90
2021/06/27 16:05:19;;;;;;;2.97;2.80;;;31.70;99.90;;;;;;4885664;29;20701;-93
2021/06/27 16:07:46;;;;;;;3.00;2.90;;;31.70;99.90;;;;;;4898794;29;20638;-90
2021/06/27 16:10:12;;;;;;;2.50;2.40;;;31.70;99.90;;;;;;4902042;29;20674;-90
2021/06/27 16:12:38;;;;;;;4.30;4.07;;;31.70;99.90;;;;;;4903353;29;20618;-91
2021/06/27 16:15:06;;;;;;;2.70;2.60;;;31.70;99.90;;;;;;4904109;29;20630;-89
2021/06/27 16:17:31;;;;;;;3.23;3.03;;;31.70;99.90;;;;;;4902586;29;20217;-89
2021/06/27 16:19:57;;;;;;;2.90;2.80;;;31.70;99.90;;;;;;4903235;29;20725;-90
2021/06/27 16:22:23;;;;;;;3.03;2.93;;;31.70;99.90;;;;;;4903423;29;20197;-90
2021/06/27 16:24:48;;;;;;;3.40;3.10;;;31.70;99.90;;;;;;4903696;29;20209;-91
2021/06/27 16:27:15;;;;;;;3.20;3.00;;;31.60;99.90;;;;;;4902854;29;20182;-90
2021/06/27 16:29:40;;;;;;;2.70;2.50;;;31.60;99.90;;;;;;4902765;29;20217;-90
2021/06/27 16:32:06;;;;;;;3.33;3.13;;;31.60;99.90;;;;;;4903682;29;20621;-91
2021/06/27 16:34:32;;;;;;;3.33;2.90;;;31.50;99.90;;;;;;4900294;29;20202;-91
2021/06/27 16:36:58;;;;;;;2.70;2.50;;;31.50;99.90;;;;;;4917271;29;20181;-90
2021/06/27 16:39:24;;;;;;;2.70;2.60;;;31.40;99.90;;;;;;4902548;29;20217;-91
2021/06/27 16:41:50;;;;;;;4.03;3.10;;;31.40;99.90;;;;;;4894849;29;20182;-89
2021/06/27 16:44:16;;;;;;;3.80;3.50;;;31.30;99.90;;;;;;4902575;29;20645;-92
2021/06/27 16:46:41;;;;;;;3.30;3.10;;;31.20;99.90;;;;;;4901600;29;20207;-91
2021/06/27 16:49:07;;;;;;;4.60;4.30;;;31.20;99.90;;;;;;4900853;29;20202;-89
2021/06/27 16:51:33;;;;;;;3.10;2.90;;;31.10;99.90;;;;;;4903710;29;20186;-90
2021/06/27 16:53:58;;;;;;;3.17;2.97;;;31.10;99.90;;;;;;4903508;29;20189;-89
2021/06/27 16:56:24;;;;;;;3.50;3.30;;;31.10;99.90;;;;;;4903634;29;20186;-90
2021/06/27 16:58:50;;;;;;;2.90;2.70;;;31.00;99.90;;;;;;4927557;23;20261;-88
2021/06/27 17:01:16;;;;;;;3.43;3.27;;;30.90;99.90;;;;;;4938415;28;20244;-87
2021/06/27 17:03:41;;;;;;;3.47;3.27;;;30.80;99.90;;;;;;4952146;28;20190;-86
2021/06/27 17:06:10;;;;;;;3.43;3.23;;;30.70;99.90;;;;;;4966978;28;20243;-86
2021/06/27 17:08:40;;;;;;;4.33;4.03;;;30.70;99.90;;;;;;4960437;29;20216;-86
2021/06/27 17:11:07;;;;;;;4.80;4.50;;;30.60;99.90;;;;;;4976139;28;20602;-86
2021/06/27 17:13:34;;;;;;;3.93;3.73;;;30.60;99.90;;;;;;4965439;28;20618;-85
2021/06/27 17:15:59;;;;;;;4.10;3.90;;;30.50;99.90;;;;;;4978391;28;20632;-86